Time;durP1;ratioP1;P1;durP2;ratioP2;P2;SDS_P1;SDS_P2;PMS_P1;PMS_P2;Temp;Humidity;BMP_temperature;BMP_pressure;BME280_temperature;BME280_humidity;BME280_pressure;Samples;Min_cycle;Max_cycle;Signal;HPM_P1;HPM_P2
2021/07/17 00:00:07;;;;;;;;;;;;;;;27.16;55.18;99062.14;393276;104;1959860;-72
2021/07/17 00:01:15;;;;;;;;;;;;;;;27.05;55.08;99062.84;382049;106;1959784;-70
2021/07/17 00:02:22;;;;;;;;;;;;;;;27.03;55.23;99056.80;338176;106;2163005;-72
2021/07/17 00:03:34;;;;;;;;;;;;;;;27.14;54.84;99055.30;396694;104;1960021;-69
2021/07/17 00:04:39;;;;;;;;;;;;;;;27.03;55.05;99056.80;376889;106;1960030;-71
2021/07/17 00:05:51;;;;;;;;;;;;;;;27.12;54.75;99058.39;387729;106;1959905;-70
2021/07/17 00:06:58;;;;;;;;;;;;;;;27.01;54.75;99059.89;331063;109;2832039;-71
2021/07/17 00:08:04;;;;;;;;;;;;;;;27.01;54.87;99059.89;314546;108;2290038;-70
2021/07/17 00:09:09;;;;;;;;;;;;;;;27.01;54.93;99053.55;344714;111;1965036;-71
2021/07/17 00:10:23;;;;;;;;;;;;;;;27.11;54.99;99062.31;373622;110;1960090;-70
2021/07/17 00:11:27;;;;;;;;;;;;;;;27.00;54.86;99057.47;353519;113;1961155;-70
2021/07/17 00:12:32;;;;;;;;;;;;;;;27.00;54.94;99052.73;360477;111;1959966;-71
2021/07/17 00:13:37;;;;;;;;;;;;;;;27.00;55.10;99057.47;360307;112;1960022;-72
2021/07/17 00:14:42;;;;;;;;;;;;;;;26.99;55.04;99059.41;360313;113;1959997;-71
2021/07/17 00:15:48;;;;;;;;;;;;;;;26.99;55.11;99051.09;351918;112;1961024;-70
2021/07/17 00:16:53;;;;;;;;;;;;;;;26.98;55.17;99058.59;360209;113;1960056;-70
2021/07/17 00:18:05;;;;;;;;;;;;;;;27.09;55.19;99061.83;389475;106;1960895;-71
2021/07/17 00:19:10;;;;;;;;;;;;;;;26.96;55.26;99058.14;373047;109;1960054;-72
2021/07/17 00:20:16;;;;;;;;;;;;;;;26.96;55.34;99052.59;367081;109;1960028;-70
2021/07/17 00:21:22;;;;;;;;;;;;;;;26.95;55.68;99050.95;366617;110;1959885;-70
2021/07/17 00:22:27;;;;;;;;;;;;;;;26.95;55.47;99050.95;366795;109;1959904;-73
2021/07/17 00:23:40;;;;;;;;;;;;;;;27.06;55.29;99051.41;388685;106;1961074;-71
2021/07/17 00:24:45;;;;;;;;;;;;;;;26.95;55.32;99056.48;370521;108;1959981;-74
2021/07/17 00:25:58;;;;;;;;;;;;;;;27.08;55.26;99053.86;384533;104;1961065;-72
2021/07/17 00:27:03;;;;;;;;;;;;;;;26.96;55.42;99055.36;377928;106;1961970;-71
2021/07/17 00:28:28;;;;;;;;;;;;;;;26.95;55.45;99056.48;379178;107;1959906;-72
2021/07/17 00:29:33;;;;;;;;;;;;;;;26.94;55.51;99054.06;320616;107;2294989;-72
2021/07/17 00:30:46;;;;;;;;;;;;;;;27.04;55.51;99050.91;399803;104;1959918;-71
2021/07/17 00:31:51;;;;;;;;;;;;;;;26.91;55.42;99049.16;376961;107;1959888;-71
2021/07/17 00:32:56;;;;;;;;;;;;;;;26.90;55.41;99047.54;378573;105;1960037;-73
2021/07/17 00:34:01;;;;;;;;;;;;;;;26.87;55.37;99049.01;378243;107;1960046;-71
2021/07/17 00:35:07;;;;;;;;;;;;;;;26.86;55.38;99052.94;375189;107;1959982;-72
2021/07/17 00:36:12;;;;;;;;;;;;;;;26.85;55.27;99056.02;372074;107;1961365;-72
2021/07/17 00:37:17;;;;;;;;;;;;;;;26.85;55.37;99056.83;368884;107;1960084;-71
2021/07/17 00:38:23;;;;;;;;;;;;;;;26.83;55.61;99055.53;329674;107;2165042;-72
2021/07/17 00:39:28;;;;;;;;;;;;;;;26.81;55.55;99053.11;315534;107;2572992;-70
2021/07/17 00:40:34;;;;;;;;;;;;;;;26.80;55.58;99048.69;298924;107;2459830;-72
2021/07/17 00:41:46;;;;;;;;;;;;;;;26.91;55.57;99046.38;397212;104;1960034;-71
2021/07/17 00:42:51;;;;;;;;;;;;;;;26.80;55.67;99042.34;382456;105;1960016;-71
2021/07/17 00:43:56;;;;;;;;;;;;;;;26.80;55.66;99045.11;379204;105;1959885;-71
2021/07/17 00:45:01;;;;;;;;;;;;;;;26.77;55.75;99041.04;367578;108;1960097;-72
2021/07/17 00:46:08;;;;;;;;;;;;;;;26.75;55.86;99041.39;355748;112;1960010;-71
2021/07/17 00:47:17;;;;;;;;;;;;;;;26.73;56.00;99040.89;361546;111;1959983;-72
2021/07/17 00:48:23;;;;;;;;;;;;;;;26.71;55.98;99056.22;299464;111;2370900;-72
2021/07/17 00:49:35;;;;;;;;;;;;;;;26.80;56.24;99036.80;400360;104;1959950;-72
2021/07/17 00:50:42;;;;;;;;;;;;;;;26.65;56.32;99050.03;376448;107;1959966;-72
2021/07/17 00:51:47;;;;;;;;;;;;;;;26.64;56.50;99048.39;375782;107;1959868;-72
2021/07/17 00:52:52;;;;;;;;;;;;;;;26.62;56.41;99036.01;373646;107;1959712;-71
2021/07/17 00:53:58;;;;;;;;;;;;;;;26.56;56.82;99031.78;373633;107;1960014;-72
2021/07/17 00:55:03;;;;;;;;;;;;;;;26.57;56.20;99041.71;374299;108;1960055;-72
2021/07/17 00:56:10;;;;;;;;;;;;;;;26.58;56.51;99046.94;376043;107;1960061;-72
2021/07/17 00:57:23;;;;;;;;;;;;;;;26.69;56.66;99047.41;397149;104;1960039;-72
2021/07/17 00:58:29;;;;;;;;;;;;;;;26.57;56.62;99048.09;380212;105;1960003;-71
2021/07/17 00:59:42;;;;;;;;;;;;;;;26.67;56.50;99049.69;388024;105;1960005;-73
2021/07/17 01:00:48;;;;;;;;;;;;;;;26.56;56.46;99057.52;371637;107;1959960;-72
2021/07/17 01:02:12;;;;;;;;;;;;;;;26.55;56.71;99049.56;370463;109;1959926;-71
2021/07/17 01:03:31;;;;;;;;;;;;;;;26.61;56.98;99046.28;397415;104;1961035;-71
2021/07/17 01:04:36;;;;;;;;;;;;;;;26.48;56.92;99047.23;376714;106;1960079;-72
2021/07/17 01:05:41;;;;;;;;;;;;;;;26.47;57.13;99045.62;370536;107;1959870;-72
2021/07/17 01:06:52;;;;;;;;;;;;;;;26.56;57.39;99048.41;396913;104;1960030;-71
2021/07/17 01:07:58;;;;;;;;;;;;;;;26.41;57.21;99044.13;386121;103;1961049;-71
2021/07/17 01:09:10;;;;;;;;;;;;;;;26.52;57.02;99048.25;398581;104;1960960;-72
2021/07/17 01:10:18;;;;;;;;;;;;;;;26.40;57.04;99046.09;375898;107;1959997;-71
2021/07/17 01:11:42;;;;;;;;;;;;;;;26.41;57.14;99046.91;372521;107;1961341;-72
2021/07/17 01:12:54;;;;;;;;;;;;;;;26.51;57.11;99043.81;382800;104;1960075;-71
2021/07/17 01:13:59;;;;;;;;;;;;;;;26.37;57.28;99046.75;366382;106;1959903;-71
2021/07/17 01:15:11;;;;;;;;;;;;;;;26.47;57.28;99046.43;394898;104;1959995;-72
2021/07/17 01:16:17;;;;;;;;;;;;;;;26.32;57.28;99047.72;372597;108;1960083;-71
2021/07/17 01:17:29;;;;;;;;;;;;;;;26.43;57.21;99053.75;400355;104;1960029;-71
2021/07/17 01:18:35;;;;;;;;;;;;;;;26.31;57.29;99045.30;378414;107;1960793;-73
2021/07/17 01:19:58;;;;;;;;;;;;;;;26.29;57.32;99042.03;379875;105;1960711;-71
2021/07/17 01:21:17;;;;;;;;;;;;;;;26.39;57.38;99044.48;390853;106;1961987;-72
2021/07/17 01:22:23;;;;;;;;;;;;;;;26.29;57.47;99042.84;331578;109;2807892;-72
2021/07/17 01:23:28;;;;;;;;;;;;;;;26.27;57.57;99042.34;357681;110;1960032;-71
2021/07/17 01:24:34;;;;;;;;;;;;;;;26.26;57.57;99042.69;342051;111;1960945;-71
2021/07/17 01:25:39;;;;;;;;;;;;;;;26.25;57.62;99041.04;329291;111;2037043;-71
2021/07/17 01:26:44;;;;;;;;;;;;;;;26.26;57.59;99045.45;341368;111;1959918;-72
2021/07/17 01:27:57;;;;;;;;;;;;;;;26.35;57.70;99040.72;396313;104;1961995;-69
2021/07/17 01:29:02;;;;;;;;;;;;;;;26.23;57.72;99040.58;377428;106;1960011;-72
2021/07/17 01:30:09;;;;;;;;;;;;;;;26.23;57.86;99044.16;375419;106;1959962;-71
2021/07/17 01:31:22;;;;;;;;;;;;;;;26.33;57.85;99040.26;357988;104;2674042;-71
2021/07/17 01:32:27;;;;;;;;;;;;;;;26.21;57.80;99042.84;352578;107;1961072;-71
2021/07/17 01:33:40;;;;;;;;;;;;;;;26.30;57.94;99043.66;391042;106;1960865;-71
2021/07/17 01:34:45;;;;;;;;;;;;;;;26.18;58.00;99044.31;357359;113;1960008;-71
2021/07/17 01:36:08;;;;;;;;;;;;;;;26.17;57.98;99039.92;329796;112;1989942;-72
2021/07/17 01:37:20;;;;;;;;;;;;;;;26.25;58.15;99038.27;396314;104;1959951;-71
2021/07/17 01:38:25;;;;;;;;;;;;;;;26.12;58.24;99042.85;380977;107;1959978;-72
2021/07/17 01:39:37;;;;;;;;;;;;;;;26.20;58.40;99047.58;396421;104;1959982;-72
2021/07/17 01:40:44;;;;;;;;;;;;;;;26.07;58.32;99049.35;370507;109;1959984;-73
2021/07/17 01:41:49;;;;;;;;;;;;;;;26.06;58.57;99052.42;371099;109;1959861;-72
2021/07/17 01:43:02;;;;;;;;;;;;;;;26.15;58.54;99050.50;382836;106;2924990;-71
2021/07/17 01:44:07;;;;;;;;;;;;;;;26.02;58.67;99049.50;305167;109;2353981;-71
2021/07/17 01:45:14;;;;;;;;;;;;;;;26.00;58.52;99048.20;348603;109;1960060;-72
2021/07/17 01:46:20;;;;;;;;;;;;;;;26.00;58.55;99048.20;368219;110;1959939;-72
2021/07/17 01:47:34;;;;;;;;;;;;;;;26.12;58.74;99042.02;395620;104;1961081;-71
2021/07/17 01:48:39;;;;;;;;;;;;;;;25.97;58.75;99041.36;330576;107;2165068;-73
2021/07/17 01:49:44;;;;;;;;;;;;;;;25.96;58.97;99047.20;311628;107;2515985;-72
2021/07/17 01:50:50;;;;;;;;;;;;;;;25.95;58.95;99051.12;310620;107;2488000;-72
2021/07/17 01:52:02;;;;;;;;;;;;;;;26.03;58.99;99048.36;402753;104;1960965;-71
2021/07/17 01:53:08;;;;;;;;;;;;;;;25.93;58.98;99051.42;381960;105;1959896;-71
2021/07/17 01:54:41;;;;;;;;;;;;;;;26.03;59.42;99045.59;402243;103;1960051;-71
2021/07/17 01:55:47;;;;;;;;;;;;;;;25.91;59.12;99044.59;346658;105;2634008;-71
2021/07/17 01:57:10;;;;;;;;;;;;;;;25.91;59.13;99044.59;382579;105;1960049;-72
2021/07/17 01:58:15;;;;;;;;;;;;;;;25.90;59.29;99049.31;383465;105;1960984;-71
2021/07/17 01:59:26;;;;;;;;;;;;;;;26.00;59.22;99046.23;398168;103;1960008;-72
2021/07/17 02:00:32;;;;;;;;;;;;;;;25.89;59.13;99053.23;377174;106;1959996;-71
2021/07/17 02:01:45;;;;;;;;;;;;;;;26.00;59.07;99049.01;385377;106;1960926;-71
2021/07/17 02:02:51;;;;;;;;;;;;;;;25.89;59.06;99047.70;362274;109;1960986;-73
2021/07/17 02:04:14;;;;;;;;;;;;;;;25.90;59.26;99046.55;370960;109;1960014;-73
2021/07/17 02:05:23;;;;;;;;;;;;;;;25.89;59.25;99044.92;367593;109;1960018;-72
2021/07/17 02:06:28;;;;;;;;;;;;;;;25.88;59.24;99046.88;371228;109;1960084;-71
2021/07/17 02:07:34;;;;;;;;;;;;;;;25.88;59.28;99046.08;370967;109;1960066;-71
2021/07/17 02:08:45;;;;;;;;;;;;;;;26.00;59.08;99042.66;397073;104;1960998;-71
2021/07/17 02:09:50;;;;;;;;;;;;;;;25.89;59.12;99042.16;374892;107;1960013;-72
2021/07/17 02:10:55;;;;;;;;;;;;;;;25.89;59.19;99039.39;371109;108;1959942;-74
2021/07/17 02:12:03;;;;;;;;;;;;;;;25.90;59.13;99042.97;372744;107;1960054;-72
2021/07/17 02:13:15;;;;;;;;;;;;;;;26.01;59.03;99042.35;398934;104;1959977;-72
2021/07/17 02:14:20;;;;;;;;;;;;;;;25.91;59.05;99041.82;376551;105;1960776;-70
2021/07/17 02:15:26;;;;;;;;;;;;;;;25.92;59.09;99044.28;371152;106;1960955;-73
2021/07/17 02:16:39;;;;;;;;;;;;;;;26.03;59.09;99048.36;389047;106;1959981;-72
2021/07/17 02:17:44;;;;;;;;;;;;;;;25.92;59.04;99047.05;370044;107;1960004;-71
2021/07/17 02:18:49;;;;;;;;;;;;;;;25.92;59.10;99054.53;365341;109;1959995;-72
2021/07/17 02:19:54;;;;;;;;;;;;;;;25.91;59.12;99050.96;367046;108;1960008;-71
2021/07/17 02:21:00;;;;;;;;;;;;;;;25.90;59.17;99049.31;374486;108;1960008;-71
2021/07/17 02:22:12;;;;;;;;;;;;;;;26.02;59.11;99054.23;397686;104;1960006;-71
2021/07/17 02:23:18;;;;;;;;;;;;;;;25.91;59.10;99050.13;378475;107;1960069;-71
2021/07/17 02:24:23;;;;;;;;;;;;;;;25.91;59.15;99050.96;377935;107;1960027;-73
2021/07/17 02:25:28;;;;;;;;;;;;;;;25.91;59.19;99053.73;372391;109;1960017;-72
2021/07/17 02:26:41;;;;;;;;;;;;;;;26.02;59.10;99051.47;388967;103;1960041;-74
2021/07/17 02:27:46;;;;;;;;;;;;;;;25.90;59.12;99057.61;361515;107;1960077;-71
2021/07/17 02:28:51;;;;;;;;;;;;;;;25.90;59.22;99060.38;333435;107;2137022;-72
2021/07/17 02:29:57;;;;;;;;;;;;;;;25.91;59.30;99053.73;326923;107;2582964;-71
2021/07/17 02:31:03;;;;;;;;;;;;;;;25.92;59.27;99055.34;362722;109;1960050;-72
2021/07/17 02:32:08;;;;;;;;;;;;;;;25.97;59.24;99055.19;366714;109;1960984;-72
2021/07/17 02:33:20;;;;;;;;;;;;;;;26.08;59.19;99058.46;398619;103;1960017;-72
2021/07/17 02:34:25;;;;;;;;;;;;;;;25.98;58.92;99058.77;380573;107;1960049;-72
2021/07/17 02:35:30;;;;;;;;;;;;;;;25.97;58.78;99051.62;374080;108;1960932;-71
2021/07/17 02:36:36;;;;;;;;;;;;;;;25.97;58.89;99059.92;373720;109;1961033;-72
2021/07/17 02:37:41;;;;;;;;;;;;;;;25.96;58.79;99053.58;372613;108;1960031;-73
2021/07/17 02:38:46;;;;;;;;;;;;;;;25.96;58.97;99055.50;374044;107;1960037;-72
2021/07/17 02:39:51;;;;;;;;;;;;;;;25.95;59.17;99056.66;369747;109;1960946;-71
2021/07/17 02:41:03;;;;;;;;;;;;;;;26.05;59.09;99056.34;397308;104;1960009;-73
2021/07/17 02:42:08;;;;;;;;;;;;;;;25.93;59.43;99054.20;378012;105;1959990;-70
2021/07/17 02:43:13;;;;;;;;;;;;;;;25.93;59.44;99053.39;378978;106;1959795;-74
2021/07/17 02:44:25;;;;;;;;;;;;;;;26.01;59.49;99047.89;401191;104;1959865;-72
2021/07/17 02:45:30;;;;;;;;;;;;;;;25.90;59.39;99049.31;378154;106;1959963;-72
2021/07/17 02:46:42;;;;;;;;;;;;;;;26.00;59.61;99046.23;402745;104;1959926;-72
2021/07/17 02:47:48;;;;;;;;;;;;;;;25.89;59.51;99050.46;379965;106;1960090;-70
2021/07/17 02:49:11;;;;;;;;;;;;;;;25.88;59.44;99046.88;381232;105;1961066;-70
2021/07/17 02:50:23;;;;;;;;;;;;;;;26.00;59.55;99046.23;398074;104;1961973;-70
2021/07/17 02:51:28;;;;;;;;;;;;;;;25.89;59.39;99050.46;376808;105;1960116;-70
2021/07/17 02:52:41;;;;;;;;;;;;;;;26.02;59.50;99052.27;345350;106;2770051;-71
2021/07/17 02:53:47;;;;;;;;;;;;;;;25.92;59.32;99049.81;309330;109;2484956;-72
2021/07/17 02:55:10;;;;;;;;;;;;;;;25.93;59.29;99054.20;371991;107;1960118;-72
2021/07/17 02:56:22;;;;;;;;;;;;;;;26.04;59.26;99049.20;382515;103;2812975;-72
2021/07/17 02:57:27;;;;;;;;;;;;;;;25.94;59.08;99053.08;380359;105;1960029;-73
2021/07/17 02:58:39;;;;;;;;;;;;;;;26.06;59.16;99052.42;398090;103;1960048;-72
2021/07/17 02:59:44;;;;;;;;;;;;;;;25.52;59.08;98982.66;361776;107;1961011;-72
2021/07/17 03:00:54;;;;;;;;;;;;;;;25.95;58.96;99051.92;350899;110;1959997;-72
2021/07/17 03:01:57;;;;;;;;;;;;;;;25.97;59.08;99046.08;359418;112;1960026;-71
2021/07/17 03:03:03;;;;;;;;;;;;;;;25.98;59.12;99047.70;361242;112;1960002;-71
2021/07/17 03:04:15;;;;;;;;;;;;;;;26.11;59.02;99052.27;398142;104;1960075;-70
2021/07/17 03:05:20;;;;;;;;;;;;;;;26.00;58.99;99053.73;376084;107;1959863;-73
2021/07/17 03:06:32;;;;;;;;;;;;;;;26.14;59.22;99053.58;381407;103;1959948;-73
2021/07/17 03:07:37;;;;;;;;;;;;;;;26.02;59.05;99046.73;321432;107;2251035;-72
2021/07/17 03:08:43;;;;;;;;;;;;;;;26.02;59.23;99052.27;307349;109;2482040;-74
2021/07/17 03:09:56;;;;;;;;;;;;;;;26.16;59.18;99048.54;387196;106;1959947;-70
2021/07/17 03:11:01;;;;;;;;;;;;;;;26.03;59.21;99047.55;368482;109;1959986;-73
2021/07/17 03:12:07;;;;;;;;;;;;;;;26.04;59.19;99049.20;368216;110;1960028;-73
2021/07/17 03:13:11;;;;;;;;;;;;;;;26.05;59.18;99051.62;365768;109;1960026;-71
2021/07/17 03:14:17;;;;;;;;;;;;;;;26.06;59.02;99053.23;366434;109;1959967;-71
2021/07/17 03:15:22;;;;;;;;;;;;;;;26.08;59.07;99050.16;367570;109;1961018;-72
2021/07/17 03:16:37;;;;;;;;;;;;;;;26.21;58.96;99042.84;352425;104;2745999;-72
2021/07/17 03:17:42;;;;;;;;;;;;;;;26.13;59.04;99046.43;378801;107;1961050;-71
2021/07/17 03:18:47;;;;;;;;;;;;;;;26.15;58.85;99046.92;378356;106;1960016;-73
2021/07/17 03:19:52;;;;;;;;;;;;;;;26.17;58.83;99045.46;341126;107;2054021;-73
2021/07/17 03:20:58;;;;;;;;;;;;;;;26.17;58.98;99045.46;372356;107;1959960;-71
2021/07/17 03:22:04;;;;;;;;;;;;;;;26.19;58.91;99043.16;344446;107;2006986;-72
2021/07/17 03:23:16;;;;;;;;;;;;;;;26.31;58.93;99045.30;391213;106;1960067;-72
2021/07/17 03:24:21;;;;;;;;;;;;;;;26.22;58.85;99045.27;368604;109;1959899;-72
2021/07/17 03:25:26;;;;;;;;;;;;;;;26.24;58.52;99043.00;366827;110;1960002;-72
2021/07/17 03:26:31;;;;;;;;;;;;;;;26.27;58.51;99045.11;367929;109;1961039;-72
2021/07/17 03:27:43;;;;;;;;;;;;;;;26.37;58.68;99045.95;387919;106;1960056;-71
2021/07/17 03:28:48;;;;;;;;;;;;;;;26.26;58.75;99042.69;372995;109;1960061;-70
2021/07/17 03:30:01;;;;;;;;;;;;;;;26.37;58.62;99040.41;395592;104;1960072;-71
2021/07/17 03:31:06;;;;;;;;;;;;;;;26.27;58.64;99042.34;374385;107;1959998;-72
2021/07/17 03:32:29;;;;;;;;;;;;;;;26.27;58.86;99044.30;373191;107;1961034;-71
2021/07/17 03:33:41;;;;;;;;;;;;;;;26.41;58.63;99042.20;396923;104;1961041;-74
2021/07/17 03:34:46;;;;;;;;;;;;;;;26.31;58.76;99039.77;379865;107;1960004;-72
2021/07/17 03:35:58;;;;;;;;;;;;;;;26.42;58.46;99040.24;390322;106;1960936;-71
2021/07/17 03:37:03;;;;;;;;;;;;;;;26.32;58.51;99044.15;370638;108;1959997;-72
2021/07/17 03:38:09;;;;;;;;;;;;;;;26.34;58.39;99038.30;370052;108;1960059;-72
2021/07/17 03:39:15;;;;;;;;;;;;;;;26.37;58.31;99037.64;337703;108;2841906;-71
2021/07/17 03:40:21;;;;;;;;;;;;;;;26.39;58.40;99030.63;299279;111;2344968;-73
2021/07/17 03:41:33;;;;;;;;;;;;;;;26.50;58.35;99039.42;392991;106;1959947;-73
2021/07/17 03:42:38;;;;;;;;;;;;;;;26.41;58.48;99036.67;377634;107;1959983;-72
2021/07/17 03:43:50;;;;;;;;;;;;;;;26.53;58.48;99038.80;400485;103;1960034;-72
2021/07/17 03:44:55;;;;;;;;;;;;;;;26.42;58.58;99040.24;381898;105;1960090;-72
2021/07/17 03:46:18;;;;;;;;;;;;;;;26.45;58.18;99042.36;349124;107;1995942;-70
2021/07/17 03:47:30;;;;;;;;;;;;;;;26.58;58.22;99035.86;373386;111;1961072;-71
2021/07/17 03:48:35;;;;;;;;;;;;;;;26.46;58.45;99036.50;354465;114;1959962;-72
2021/07/17 03:49:40;;;;;;;;;;;;;;;26.47;58.36;99037.31;343409;113;1960039;-74
2021/07/17 03:50:46;;;;;;;;;;;;;;;26.48;58.37;99039.73;356220;113;1959948;-72
2021/07/17 03:51:58;;;;;;;;;;;;;;;26.63;58.30;99037.66;401231;104;1959981;-71
2021/07/17 03:53:04;;;;;;;;;;;;;;;26.55;58.07;99035.70;376201;107;1959935;-73
2021/07/17 03:54:10;;;;;;;;;;;;;;;26.57;58.19;99036.17;378080;107;1959934;-71
2021/07/17 03:55:15;;;;;;;;;;;;;;;26.56;58.38;99040.09;375069;107;1960015;-71
2021/07/17 03:56:22;;;;;;;;;;;;;;;26.57;58.12;99038.94;372025;107;1959843;-72
2021/07/17 03:57:34;;;;;;;;;;;;;;;26.70;58.06;99044.33;389804;104;1959947;-71
2021/07/17 03:58:39;;;;;;;;;;;;;;;26.62;57.99;99044.31;368343;106;1960059;-72
2021/07/17 03:59:44;;;;;;;;;;;;;;;26.63;57.86;99041.23;315933;110;2228039;-72
2021/07/17 04:00:56;;;;;;;;;;;;;;;26.76;57.80;99042.20;410682;101;1959855;-71
2021/07/17 04:02:01;;;;;;;;;;;;;;;26.67;57.63;99041.37;392739;102;1959915;-73
2021/07/17 04:03:07;;;;;;;;;;;;;;;26.71;57.56;99047.91;387158;105;1959921;-72
2021/07/17 04:04:20;;;;;;;;;;;;;;;26.84;57.51;99033.05;398048;103;1961069;-71
2021/07/17 04:05:26;;;;;;;;;;;;;;;26.74;57.55;99039.73;375234;107;1960963;-73
2021/07/17 04:06:37;;;;;;;;;;;;;;;26.87;57.60;99043.47;395110;104;1959108;-72
2021/07/17 04:07:44;;;;;;;;;;;;;;;26.77;57.49;99038.27;340596;105;2099009;-72
2021/07/17 04:08:49;;;;;;;;;;;;;;;26.81;57.35;99041.22;380649;106;1959904;-73
2021/07/17 04:10:01;;;;;;;;;;;;;;;26.95;57.35;99041.82;402435;104;1959888;-72
2021/07/17 04:11:06;;;;;;;;;;;;;;;26.86;57.18;99047.39;378381;106;1960061;-72
2021/07/17 04:12:11;;;;;;;;;;;;;;;26.86;57.41;99052.09;380714;106;1959844;-73
2021/07/17 04:13:16;;;;;;;;;;;;;;;26.88;57.39;99052.59;380611;107;1960007;-73
2021/07/17 04:14:28;;;;;;;;;;;;;;;27.03;56.99;99052.07;389810;106;1959902;-74
2021/07/17 04:15:33;;;;;;;;;;;;;;;26.94;57.11;99056.84;371354;108;1961107;-73
2021/07/17 04:16:47;;;;;;;;;;;;;;;27.07;57.60;99054.98;396445;103;1960059;-73
2021/07/17 04:17:52;;;;;;;;;;;;;;;26.97;57.46;99053.40;344261;107;2053052;-72
2021/07/17 04:19:15;;;;;;;;;;;;;;;26.97;57.69;99050.63;380322;107;1960060;-73
2021/07/17 04:20:20;;;;;;;;;;;;;;;26.99;57.46;99053.86;374774;107;1959897;-72
2021/07/17 04:21:25;;;;;;;;;;;;;;;27.01;57.40;99059.09;374526;109;1959960;-72
2021/07/17 04:22:30;;;;;;;;;;;;;;;27.00;57.50;99051.92;374420;107;1960105;-72
2021/07/17 04:23:42;;;;;;;;;;;;;;;27.10;57.49;99054.34;398327;104;1960001;-74
2021/07/17 04:24:47;;;;;;;;;;;;;;;27.01;57.34;99054.35;376920;106;1960003;-73
2021/07/17 04:26:00;;;;;;;;;;;;;;;27.14;57.26;99056.11;395130;106;1959926;-71
2021/07/17 04:27:05;;;;;;;;;;;;;;;27.08;57.13;99053.86;374490;108;1962016;-74
2021/07/17 04:28:10;;;;;;;;;;;;;;;27.10;57.34;99057.13;371415;108;1960842;-73
2021/07/17 04:29:16;;;;;;;;;;;;;;;27.14;57.19;99052.52;372143;109;1960022;-72
2021/07/17 04:30:28;;;;;;;;;;;;;;;27.29;57.15;99057.56;374107;108;1960030;-71
2021/07/17 04:31:34;;;;;;;;;;;;;;;27.21;56.96;99063.95;314971;110;2189054;-71
2021/07/17 04:32:46;;;;;;;;;;;;;;;27.35;56.93;99058.19;391151;106;1960082;-72
2021/07/17 04:33:51;;;;;;;;;;;;;;;27.26;56.93;99057.42;369882;110;1960027;-73
2021/07/17 04:35:07;;;;;;;;;;;;;;;27.42;56.75;99063.23;396349;104;1961014;-72
2021/07/17 04:36:12;;;;;;;;;;;;;;;27.33;56.67;99058.52;372692;107;1960035;-73
2021/07/17 04:37:36;;;;;;;;;;;;;;;27.33;56.45;99055.73;311521;107;2319000;-73
2021/07/17 04:38:48;;;;;;;;;;;;;;;27.47;56.61;99061.09;396765;104;1960045;-73
2021/07/17 04:39:53;;;;;;;;;;;;;;;27.38;56.42;99057.52;378136;106;1960058;-70
2021/07/17 04:40:58;;;;;;;;;;;;;;;27.39;55.84;99050.84;374057;107;1959982;-73
2021/07/17 04:42:10;;;;;;;;;;;;;;;27.51;55.41;99059.26;398451;104;1961040;-72
2021/07/17 04:43:15;;;;;;;;;;;;;;;27.39;54.91;99051.66;378012;107;1960929;-73
2021/07/17 04:44:20;;;;;;;;;;;;;;;27.39;55.58;99043.34;379874;106;1960972;-71
2021/07/17 04:45:25;;;;;;;;;;;;;;;27.44;55.58;99050.63;370653;107;1960027;-72
2021/07/17 04:46:30;;;;;;;;;;;;;;;27.49;55.37;99055.19;357474;108;1961742;-72
2021/07/17 04:47:36;;;;;;;;;;;;;;;27.57;55.08;99054.33;307863;111;2231977;-70
2021/07/17 04:48:41;;;;;;;;;;;;;;;27.61;55.05;99058.08;337094;113;1965939;-73
2021/07/17 04:49:46;;;;;;;;;;;;;;;27.65;54.42;99052.66;300329;109;2365001;-71
2021/07/17 04:50:52;;;;;;;;;;;;;;;27.68;54.46;99050.05;360690;109;1961013;-71
2021/07/17 04:51:57;;;;;;;;;;;;;;;27.73;54.31;99057.35;325254;109;2141007;-72
2021/07/17 04:53:09;;;;;;;;;;;;;;;27.89;54.14;99057.62;391839;106;1961033;-71
2021/07/17 04:54:14;;;;;;;;;;;;;;;27.80;54.05;99065.97;367797;110;1959996;-70
2021/07/17 04:55:26;;;;;;;;;;;;;;;27.90;53.89;99053.71;394807;104;1959994;-72
2021/07/17 04:56:31;;;;;;;;;;;;;;;27.79;54.02;99056.03;373048;107;1959975;-73
2021/07/17 04:57:36;;;;;;;;;;;;;;;27.79;53.78;99064.36;373142;107;1959902;-73
2021/07/17 04:58:48;;;;;;;;;;;;;;;27.92;53.97;99066.10;396661;104;1960067;-72
2021/07/17 04:59:53;;;;;;;;;;;;;;;27.84;53.59;99059.45;374836;106;1961034;-72
2021/07/17 05:00:59;;;;;;;;;;;;;;;27.90;53.63;99056.48;370173;107;1960041;-74
2021/07/17 05:02:04;;;;;;;;;;;;;;;27.95;53.19;99064.62;372725;108;1959918;-72
2021/07/17 05:03:36;;;;;;;;;;;;;;;28.11;53.08;99062.06;383975;108;1960078;-72
2021/07/17 05:04:42;;;;;;;;;;;;;;;28.03;52.88;99061.78;367067;109;1959985;-72
2021/07/17 05:05:47;;;;;;;;;;;;;;;27.97;52.81;99052.03;362929;110;1959974;-73
2021/07/17 05:06:53;;;;;;;;;;;;;;;28.06;52.70;99063.06;361622;110;1960914;-73
2021/07/17 05:07:58;;;;;;;;;;;;;;;28.07;52.81;99064.69;361936;111;1960109;-74
2021/07/17 05:09:10;;;;;;;;;;;;;;;28.22;52.88;99063.28;389027;106;1960012;-73
2021/07/17 05:10:18;;;;;;;;;;;;;;;28.17;52.52;99064.29;369348;109;1961049;-73
2021/07/17 05:11:30;;;;;;;;;;;;;;;28.32;52.20;99065.66;398714;104;1960027;-72
2021/07/17 05:12:35;;;;;;;;;;;;;;;28.23;52.35;99062.92;375009;109;1960000;-73
2021/07/17 05:13:59;;;;;;;;;;;;;;;28.25;52.53;99070.94;365802;110;1960047;-72
2021/07/17 05:15:05;;;;;;;;;;;;;;;28.24;52.64;99060.98;366676;109;1961010;-73
2021/07/17 05:16:10;;;;;;;;;;;;;;;28.28;52.77;99067.47;367547;110;1960048;-73
2021/07/17 05:17:23;;;;;;;;;;;;;;;28.41;52.89;99065.58;402858;104;1960039;-74
2021/07/17 05:18:28;;;;;;;;;;;;;;;28.33;53.00;99072.02;383058;105;1961001;-74
2021/07/17 05:19:34;;;;;;;;;;;;;;;28.38;52.75;99066.27;385624;105;1960054;-73
2021/07/17 05:20:40;;;;;;;;;;;;;;;28.42;52.95;99070.81;382318;107;1959919;-72
2021/07/17 05:21:45;;;;;;;;;;;;;;;28.47;52.68;99069.80;360511;105;2816050;-74
2021/07/17 05:22:50;;;;;;;;;;;;;;;28.51;52.31;99069.95;382271;105;1959994;-74
2021/07/17 05:23:56;;;;;;;;;;;;;;;28.53;52.29;99068.46;385336;105;1960043;-73
2021/07/17 05:25:11;;;;;;;;;;;;;;;28.64;52.14;99071.63;383930;104;1959946;-73
2021/07/17 05:26:17;;;;;;;;;;;;;;;28.52;51.85;99071.56;380547;105;1959895;-73
2021/07/17 05:27:29;;;;;;;;;;;;;;;28.63;52.00;99072.77;391418;104;1960078;-71
2021/07/17 05:28:34;;;;;;;;;;;;;;;28.54;51.93;99069.27;322789;105;2317898;-72
2021/07/17 05:29:57;;;;;;;;;;;;;;;28.54;50.55;99066.48;380319;106;1960013;-73
2021/07/17 05:31:02;;;;;;;;;;;;;;;28.56;51.14;99073.33;379814;106;1958994;-72
2021/07/17 05:32:14;;;;;;;;;;;;;;;28.68;51.27;99069.78;390737;106;1960002;-74
2021/07/17 05:33:19;;;;;;;;;;;;;;;28.59;50.47;99069.06;370365;108;1960020;-73
2021/07/17 05:34:24;;;;;;;;;;;;;;;28.61;50.79;99072.32;369638;108;1958710;-72
2021/07/17 05:35:36;;;;;;;;;;;;;;;28.77;50.90;99072.50;400165;104;1959908;-71
2021/07/17 05:36:42;;;;;;;;;;;;;;;28.69;50.75;99074.20;377974;105;2866915;-72
2021/07/17 05:37:55;;;;;;;;;;;;;;;28.91;50.38;99076.59;390083;104;1960025;-72
2021/07/17 05:39:08;;;;;;;;;;;;;;;28.97;50.23;99074.39;401849;104;1959851;-72
2021/07/17 05:40:14;;;;;;;;;;;;;;;28.92;50.40;99080.17;373392;105;2912006;-72
2021/07/17 05:41:29;;;;;;;;;;;;;;;29.08;49.91;99078.42;397966;104;1960012;-73
2021/07/17 05:42:35;;;;;;;;;;;;;;;29.00;50.47;99081.24;379884;107;1959975;-73
2021/07/17 05:43:58;;;;;;;;;;;;;;;29.04;50.53;99082.19;376385;105;1959978;-73
2021/07/17 05:45:04;;;;;;;;;;;;;;;29.09;49.64;99085.59;377350;106;1959992;-73
2021/07/17 05:46:09;;;;;;;;;;;;;;;29.17;49.09;99085.85;374658;109;1961931;-73
2021/07/17 05:47:22;;;;;;;;;;;;;;;29.36;49.25;99078.57;397822;104;1961025;-72